Time;durP1;ratioP1;P1;durP2;ratioP2;P2;SDS_P1;SDS_P2;PMS_P1;PMS_P2;Temp;Humidity;BMP_temperature;BMP_pressure;BME280_temperature;BME280_humidity;BME280_pressure;Samples;Min_cycle;Max_cycle;Signal;HPM_P1;HPM_P2
2023/12/26 00:00:36;;;;;;;4.78;1.65;;;;;;;12.11;100.00;100775.56;5265041;28;20032;-78
2023/12/26 00:03:07;;;;;;;5.55;1.75;;;;;;;11.86;100.00;100790.19;5268849;28;20700;-77
2023/12/26 00:05:39;;;;;;;4.90;2.08;;;;;;;11.93;100.00;100783.06;5264184;28;20028;-78
2023/12/26 00:08:10;;;;;;;4.45;1.90;;;;;;;11.91;100.00;100779.72;5260977;28;20115;-78
2023/12/26 00:10:40;;;;;;;5.60;2.20;;;;;;;11.85;100.00;100777.75;5267350;28;20054;-78
2023/12/26 00:13:11;;;;;;;3.15;2.10;;;;;;;11.84;100.00;100771.53;5273349;28;20610;-78
2023/12/26 00:15:41;;;;;;;3.92;1.90;;;;;;;11.88;100.00;100772.84;5267713;28;20034;-78
2023/12/26 00:18:12;;;;;;;4.72;2.13;;;;;;;11.88;100.00;100775.53;5264096;28;20404;-78
2023/12/26 00:20:43;;;;;;;4.45;2.17;;;;;;;11.77;100.00;100775.06;5270150;28;20028;-77
2023/12/26 00:23:14;;;;;;;5.63;2.50;;;;;;;11.74;100.00;100772.72;5270149;28;20032;-78
2023/12/26 00:25:44;;;;;;;3.53;2.25;;;;;;;11.61;100.00;100768.75;5263570;28;20093;-78
2023/12/26 00:28:17;;;;;;;7.90;2.53;;;;;;;11.54;100.00;100759.72;5265448;28;20018;-78
2023/12/26 00:30:47;;;;;;;5.82;1.92;;;;;;;11.58;100.00;100765.56;5266709;28;20020;-78
2023/12/26 00:33:18;;;;;;;4.75;2.05;;;;;;;11.60;100.00;100769.78;5263918;28;20027;-78
2023/12/26 00:35:48;;;;;;;5.85;2.20;;;;;;;11.61;100.00;100766.06;5264542;28;20078;-78
2023/12/26 00:38:21;;;;;;;2.53;1.80;;;;;;;11.46;100.00;100767.00;5262805;28;20047;-78
2023/12/26 00:40:51;;;;;;;4.65;2.10;;;;;;;11.43;100.00;100764.63;5263398;28;20420;-78
2023/12/26 00:43:22;;;;;;;3.63;1.55;;;;;;;11.46;100.00;100759.75;5264002;28;20020;-78
2023/12/26 00:45:52;;;;;;;4.72;1.80;;;;;;;11.44;100.00;100761.75;5267522;28;20024;-78
2023/12/26 00:48:23;;;;;;;6.50;2.20;;;;;;;11.39;100.00;100766.81;5271390;28;20027;-78
2023/12/26 00:50:53;;;;;;;3.15;1.77;;;;;;;11.39;100.00;100770.34;5267016;28;20043;-77
2023/12/26 00:53:24;;;;;;;6.18;2.10;;;;;;;11.43;100.00;100764.63;5271113;28;20047;-78
2023/12/26 00:55:54;;;;;;;3.90;1.85;;;;;;;11.37;100.00;100772.38;5264129;28;20032;-78
2023/12/26 00:58:25;;;;;;;5.20;2.08;;;;;;;11.43;100.00;100772.69;5261086;28;20020;-78
2023/12/26 01:00:56;;;;;;;4.78;1.90;;;;;;;11.42;100.00;100771.84;5264630;28;20020;-78
2023/12/26 01:03:26;;;;;;;12.88;2.88;;;;;;;11.36;100.00;100768.03;5265559;28;20082;-77
2023/12/26 01:05:57;;;;;;;5.00;2.30;;;;;;;11.40;100.00;100780.09;5265112;28;20020;-78
2023/12/26 01:08:27;;;;;;;5.70;2.40;;;;;;;11.41;100.00;100772.88;5263305;28;20052;-78
2023/12/26 01:10:58;;;;;;;5.43;2.85;;;;;;;11.38;100.00;100775.91;5266561;28;20089;-77
2023/12/26 01:13:34;;;;;;;5.28;2.40;;;;;;;11.38;100.00;100766.00;5270722;28;20408;-78
2023/12/26 01:16:05;;;;;;;9.85;2.15;;;;;;;11.45;100.00;100779.59;5265294;28;20036;-78
2023/12/26 01:18:36;;;;;;;6.97;2.20;;;;;;;11.33;100.00;100778.25;5263214;28;20397;-78
2023/12/26 01:21:08;;;;;;;6.18;2.47;;;;;;;11.31;100.00;100782.97;5265704;28;20020;-78
2023/12/26 01:23:39;;;;;;;4.15;2.22;;;;;;;11.33;100.00;100792.53;5269579;28;20039;-78
2023/12/26 01:26:09;;;;;;;3.53;1.90;;;;;;;11.25;100.00;100789.88;5269518;28;20023;-77
2023/12/26 01:28:40;;;;;;;7.25;1.98;;;;;;;11.27;100.00;100779.78;5264022;28;20031;-78
2023/12/26 01:31:10;;;;;;;4.95;2.20;;;;;;;11.24;100.00;100784.66;5266570;28;20080;-78
2023/12/26 01:33:41;;;;;;;6.68;2.13;;;;;;;11.32;100.00;100784.66;5267089;28;20059;-78
2023/12/26 01:36:12;;;;;;;6.13;2.60;;;;;;;11.23;100.00;100786.50;5270634;28;20076;-77
2023/12/26 01:38:42;;;;;;;12.00;3.58;;;;;;;11.35;100.00;100795.91;5264025;28;20028;-77
2023/12/26 01:41:12;;;;;;;12.75;2.60;;;;;;;11.40;100.00;100787.31;5266492;28;20079;-77
2023/12/26 01:43:43;;;;;;;6.95;2.58;;;;;;;11.44;100.00;100790.47;5266623;28;20489;-77
2023/12/26 01:46:14;;;;;;;8.20;2.10;;;;;;;11.29;100.00;100787.66;5264413;28;20026;-78
2023/12/26 01:48:47;;;;;;;9.93;2.33;;;;;;;11.40;100.00;100804.28;5265476;28;20431;-77
2023/12/26 01:51:20;;;;;;;9.25;2.25;;;;;;;11.36;100.00;100808.31;5265474;28;20016;-77
2023/12/26 01:53:51;;;;;;;4.05;2.38;;;;;;;11.38;100.00;100810.81;5266556;28;20444;-77
2023/12/26 01:56:22;;;;;;;5.10;1.92;;;;;;;11.44;100.00;100817.34;5266995;28;20055;-78
2023/12/26 01:58:53;;;;;;;8.55;2.13;;;;;;;11.46;100.00;100815.34;5265545;28;20024;-78
2023/12/26 02:01:24;;;;;;;6.95;2.20;;;;;;;11.46;100.00;100818.88;5263674;28;20020;-77
2023/12/26 02:03:55;;;;;;;8.25;2.55;;;;;;;11.36;100.00;100832.47;5271473;28;20032;-77
2023/12/26 02:06:29;;;;;;;8.70;2.35;;;;;;;11.40;100.00;100827.63;5268239;28;20484;-77
2023/12/26 02:09:00;;;;;;;14.05;2.85;;;;;;;11.37;100.00;100836.00;5265127;28;20082;-78
2023/12/26 02:11:30;;;;;;;8.68;2.72;;;;;;;11.38;100.00;100843.03;5266461;28;20032;-77
2023/12/26 02:14:01;;;;;;;6.65;2.60;;;;;;;11.48;100.00;100845.53;5268813;28;20059;-78
2023/12/26 02:16:35;;;;;;;3.90;2.30;;;;;;;11.41;100.00;100842.72;5268781;28;20103;-77
2023/12/26 02:19:05;;;;;;;8.90;2.88;;;;;;;11.50;100.00;100835.47;5267531;28;20024;-77
2023/12/26 02:21:36;;;;;;;6.88;2.75;;;;;;;11.49;100.00;100853.41;5267535;28;20023;-77
2023/12/26 02:24:07;;;;;;;12.77;3.40;;;;;;;11.46;100.00;100866.38;5265608;28;20050;-76
2023/12/26 02:26:41;;;;;;;8.77;3.13;;;;;;;11.46;100.00;100853.78;5266938;28;20106;-77
2023/12/26 02:29:13;;;;;;;6.55;2.60;;;;;;;11.41;100.00;100856.97;5268427;28;20096;-76
2023/12/26 02:31:45;;;;;;;15.57;3.20;;;;;;;11.45;100.00;100846.75;5264979;28;20036;-77
2023/12/26 02:34:16;;;;;;;9.35;2.75;;;;;;;11.50;100.00;100859.66;5270386;28;20384;-77
2023/12/26 02:36:47;;;;;;;11.35;3.00;;;;;;;11.48;100.00;100858.97;5265459;28;20028;-76
2023/12/26 02:39:17;;;;;;;7.82;2.53;;;;;;;11.45;100.00;100865.53;5267255;28;20024;-77
2023/12/26 02:41:48;;;;;;;10.88;2.92;;;;;;;11.39;100.00;100868.91;5267343;28;20077;-76
2023/12/26 02:44:18;;;;;;;10.95;2.28;;;;;;;11.38;100.00;100862.69;5265577;27;20028;-77
2023/12/26 02:46:49;;;;;;;6.70;2.67;;;;;;;11.40;100.00;100862.53;5264632;28;20473;-77
2023/12/26 02:49:20;;;;;;;7.88;2.30;;;;;;;11.38;100.00;100857.31;5268664;28;20155;-77
2023/12/26 02:51:51;;;;;;;12.13;2.67;;;;;;;11.34;100.00;100863.19;5269969;28;20037;-77
2023/12/26 02:54:21;;;;;;;9.15;2.60;;;;;;;11.34;100.00;100861.34;5269756;27;20035;-76
2023/12/26 02:56:52;;;;;;;4.22;2.08;;;;;;;11.41;100.00;100859.66;5268255;28;20578;-76
2023/12/26 02:59:23;;;;;;;7.40;3.00;;;;;;;11.35;100.00;100859.53;5269512;28;20106;-76
2023/12/26 03:02:05;;;;;;;7.57;2.28;;;;;;;11.36;100.00;100864.72;5271180;28;20020;-77
2023/12/26 03:04:36;;;;;;;8.13;2.33;;;;;;;11.25;100.00;100883.88;5272403;28;20579;-76
2023/12/26 03:07:07;;;;;;;5.78;2.17;;;;;;;11.39;100.00;100885.84;5272708;28;20496;-76
2023/12/26 03:09:38;;;;;;;6.30;2.30;;;;;;;11.43;100.00;100886.34;5269603;28;20027;-77
2023/12/26 03:12:11;;;;;;;5.90;2.05;;;;;;;11.40;100.00;100897.47;5270706;28;20126;-76
2023/12/26 03:14:45;;;;;;;4.00;2.20;;;;;;;11.42;100.00;100892.75;5272630;28;20077;-77
2023/12/26 03:17:16;;;;;;;5.15;2.33;;;;;;;11.37;100.00;100893.25;5268449;28;20579;-77
2023/12/26 03:19:56;;;;;;;8.70;2.30;;;;;;;11.38;100.00;100894.91;5267371;28;20024;-77
2023/12/26 03:22:26;;;;;;;6.72;1.98;;;;;;;11.40;100.00;100895.59;5265801;27;20043;-77
2023/12/26 03:24:57;;;;;;;6.10;1.77;;;;;;;11.43;100.00;100909.69;5270401;28;20040;-77
2023/12/26 03:27:29;;;;;;;4.72;1.85;;;;;;;11.40;100.00;100917.09;5271130;28;20019;-77
2023/12/26 03:30:00;;;;;;;3.17;1.70;;;;;;;11.36;100.00;100922.97;5263562;28;20031;-76
2023/12/26 03:32:44;;;;;;;6.85;2.03;;;;;;;11.38;100.00;100920.94;5268012;28;20036;-77
2023/12/26 03:35:15;;;;;;;7.25;2.47;;;;;;;11.44;100.00;100927.47;5272019;28;20096;-77
2023/12/26 03:37:47;;;;;;;5.93;2.22;;;;;;;11.33;100.00;100926.81;5265644;28;20051;-76
2023/12/26 03:40:17;;;;;;;7.43;1.98;;;;;;;11.49;100.00;100930.50;5264399;28;20052;-76
2023/12/26 03:42:48;;;;;;;7.03;3.25;;;;;;;11.49;100.00;100927.81;5269459;28;20058;-76
2023/12/26 03:45:18;;;;;;;6.50;2.03;;;;;;;11.55;100.00;100925.31;5267178;28;20093;-76
2023/12/26 03:47:49;;;;;;;6.00;2.05;;;;;;;11.53;100.00;100945.28;5266079;28;20028;-77
2023/12/26 03:50:20;;;;;;;5.80;1.88;;;;;;;11.53;100.00;100939.91;5269477;28;20023;-77
2023/12/26 03:52:51;;;;;;;7.13;2.10;;;;;;;11.65;100.00;100939.38;5262461;28;20024;-76
2023/12/26 03:55:22;;;;;;;5.13;2.00;;;;;;;11.62;100.00;100946.94;5250336;28;20478;-77
2023/12/26 03:57:52;;;;;;;7.20;1.38;;;;;;;11.68;100.00;100952.47;5263156;28;20054;-77
2023/12/26 04:00:23;;;;;;;6.47;1.88;;;;;;;11.66;100.00;100948.28;5265523;28;20698;-77
2023/12/26 04:02:53;;;;;;;5.50;1.85;;;;;;;11.65;100.00;100946.63;5266517;28;20039;-77
2023/12/26 04:05:24;;;;;;;7.35;1.80;;;;;;;11.74;100.00;100952.78;5265775;28;20023;-77
2023/12/26 04:07:54;;;;;;;7.50;1.92;;;;;;;11.73;100.00;100964.56;5264354;28;20025;-77
2023/12/26 04:10:25;;;;;;;9.15;2.67;;;;;;;11.79;100.00;100958.50;5266272;28;20095;-77
2023/12/26 04:12:56;;;;;;;6.28;2.60;;;;;;;11.82;100.00;100959.03;5267402;28;20023;-77
2023/12/26 04:15:26;;;;;;;5.07;2.10;;;;;;;11.75;100.00;100954.50;5265606;28;20031;-77
2023/12/26 04:17:58;;;;;;;10.60;2.38;;;;;;;11.74;100.00;100963.53;5265939;28;20393;-76
2023/12/26 04:20:29;;;;;;;5.57;1.80;;;;;;;11.76;100.00;100958.84;5266210;28;20353;-77
2023/12/26 04:22:59;;;;;;;5.20;2.10;;;;;;;11.71;100.00;100975.50;5263928;28;20038;-76
2023/12/26 04:25:30;;;;;;;10.35;3.13;;;;;;;11.63;100.00;100976.31;5265334;28;20076;-77
2023/12/26 04:28:00;;;;;;;9.48;2.05;;;;;;;11.65;100.00;100979.69;5267107;28;20047;-76
2023/12/26 04:30:31;;;;;;;9.23;1.90;;;;;;;11.71;100.00;100988.09;5264851;27;20027;-76
2023/12/26 04:33:02;;;;;;;6.35;1.85;;;;;;;11.78;100.00;100989.91;5267779;28;20477;-76
2023/12/26 04:35:32;;;;;;;8.40;1.90;;;;;;;11.82;100.00;100983.22;5264235;28;20103;-76
2023/12/26 04:38:03;;;;;;;11.80;2.03;;;;;;;11.73;100.00;100992.25;5267779;28;20032;-76
2023/12/26 04:40:34;;;;;;;9.63;1.80;;;;;;;11.75;100.00;100990.25;5266746;28;20469;-76
2023/12/26 04:43:08;;;;;;;11.05;2.30;;;;;;;11.75;100.00;100989.44;5268723;28;20042;-76
2023/12/26 04:45:38;;;;;;;7.13;2.37;;;;;;;11.68;100.00;101000.84;5265653;28;20039;-77
2023/12/26 04:48:09;;;;;;;4.68;1.90;;;;;;;11.68;100.00;101013.44;5268737;28;20370;-76
2023/12/26 04:50:40;;;;;;;4.75;1.67;;;;;;;11.75;100.00;101013.63;5265922;28;20081;-77
2023/12/26 04:53:11;;;;;;;15.57;2.22;;;;;;;11.71;100.00;101009.59;5269315;28;20027;-76
2023/12/26 04:55:41;;;;;;;5.03;1.88;;;;;;;11.73;100.00;101012.94;5264463;28;20027;-76
2023/12/26 04:58:12;;;;;;;10.63;3.17;;;;;;;11.65;100.00;100994.97;5263826;28;20039;-76
2023/12/26 05:00:43;;;;;;;11.55;2.55;;;;;;;11.73;100.00;101002.19;5261490;28;20089;-76
2023/12/26 05:03:14;;;;;;;8.38;1.95;;;;;;;11.77;100.00;101003.53;5271614;28;20122;-76
2023/12/26 05:05:44;;;;;;;12.18;1.88;;;;;;;11.64;100.00;101010.25;5265680;28;20020;-76
2023/12/26 05:08:15;;;;;;;7.45;2.13;;;;;;;11.70;100.00;101010.56;5270437;28;20385;-77
2023/12/26 05:10:45;;;;;;;6.40;1.73;;;;;;;11.71;100.00;101018.50;5267199;28;20031;-78
2023/12/26 05:13:16;;;;;;;10.38;2.35;;;;;;;11.62;100.00;101022.19;5251059;28;20032;-76
2023/12/26 05:15:46;;;;;;;8.10;2.45;;;;;;;11.64;100.00;101023.69;5268327;28;20385;-76
2023/12/26 05:18:17;;;;;;;7.78;2.03;;;;;;;11.68;100.00;101026.88;5268525;28;20095;-76
2023/12/26 05:20:48;;;;;;;7.93;2.47;;;;;;;11.72;100.00;101033.59;5266120;28;20024;-76
2023/12/26 05:23:18;;;;;;;14.45;2.42;;;;;;;11.66;100.00;101034.28;5267092;28;20051;-78
2023/12/26 05:25:49;;;;;;;9.75;2.67;;;;;;;11.65;100.00;101040.66;5268998;28;20043;-77
2023/12/26 05:28:19;;;;;;;10.13;2.00;;;;;;;11.60;100.00;101034.97;5269378;28;20035;-77
2023/12/26 05:30:50;;;;;;;11.25;2.25;;;;;;;11.61;100.00;101042.00;5269157;28;20016;-77
2023/12/26 05:33:20;;;;;;;13.95;2.33;;;;;;;11.67;100.00;101050.22;5266314;28;20742;-77
2023/12/26 05:35:51;;;;;;;9.27;2.35;;;;;;;11.67;100.00;101050.22;5269038;28;20067;-77
2023/12/26 05:38:22;;;;;;;10.48;2.45;;;;;;;11.68;100.00;101056.44;5264953;28;20503;-77
2023/12/26 05:40:52;;;;;;;14.30;2.55;;;;;;;11.70;100.00;101067.88;5267482;28;20028;-77
2023/12/26 05:43:23;;;;;;;10.48;2.33;;;;;;;11.78;100.00;101069.72;5270730;28;20086;-77
2023/12/26 05:45:53;;;;;;;9.15;2.40;;;;;;;11.75;100.00;101070.06;5267200;28;20046;-77
2023/12/26 05:48:24;;;;;;;12.05;2.58;;;;;;;11.78;100.00;101059.78;5270090;28;20031;-77
2023/12/26 05:50:54;;;;;;;9.63;2.22;;;;;;;11.67;100.00;101074.41;5269812;28;20028;-77
2023/12/26 05:53:29;;;;;;;14.30;2.55;;;;;;;11.78;100.00;101075.91;5269421;27;20473;-77
2023/12/26 05:55:59;;;;;;;10.45;2.38;;;;;;;11.81;100.00;101088.19;5269303;28;20358;-77
2023/12/26 05:58:30;;;;;;;8.98;2.95;;;;;;;11.85;100.00;101097.66;5268037;28;20039;-77
2023/12/26 06:01:01;;;;;;;13.70;2.50;;;;;;;11.82;100.00;101092.59;5270254;28;20036;-77
2023/12/26 06:03:32;;;;;;;15.50;2.85;;;;;;;11.76;100.00;101096.75;5270444;28;20026;-77
2023/12/26 06:06:03;;;;;;;14.05;2.70;;;;;;;11.77;100.00;101113.72;5269406;28;20461;-76
2023/12/26 06:08:33;;;;;;;18.88;3.22;;;;;;;11.76;100.00;101110.19;5269291;28;20028;-76
2023/12/26 06:11:04;;;;;;;19.08;3.22;;;;;;;11.67;100.00;101125.47;5268753;28;20024;-76
2023/12/26 06:13:34;;;;;;;23.27;4.40;;;;;;;11.65;100.00;101115.91;5268624;28;20032;-77
2023/12/26 06:16:05;;;;;;;14.18;2.40;;;;;;;11.61;100.00;101123.47;5272203;28;20020;-77
2023/12/26 06:18:36;;;;;;;16.92;2.45;;;;;;;11.54;100.00;101121.59;5266324;28;20024;-79
2023/12/26 06:21:06;;;;;;;19.13;4.05;;;;;;;11.59;100.00;101130.81;5271636;28;20048;-77
2023/12/26 06:23:37;;;;;;;11.13;2.45;;;;;;;11.61;100.00;101139.59;5268071;28;20076;-77
2023/12/26 06:26:08;;;;;;;15.15;2.53;;;;;;;11.55;100.00;101137.56;5273847;28;20442;-76
2023/12/26 06:28:39;;;;;;;17.88;2.65;;;;;;;11.49;100.00;101146.25;5272537;28;20097;-77
2023/12/26 06:31:14;;;;;;;21.27;2.78;;;;;;;11.51;100.00;101152.31;5273478;28;20384;-77
2023/12/26 06:33:44;;;;;;;13.98;2.78;;;;;;;11.58;100.00;101157.88;5267556;28;20043;-76
2023/12/26 06:36:15;;;;;;;16.45;2.85;;;;;;;11.48;100.00;101155.34;5273427;28;20019;-76
2023/12/26 06:38:45;;;;;;;14.75;2.42;;;;;;;11.43;100.00;101156.84;5272637;28;20036;-77
2023/12/26 06:41:16;;;;;;;17.83;2.53;;;;;;;11.55;100.00;101153.69;5273921;28;20024;-77
2023/12/26 06:43:46;;;;;;;12.15;1.98;;;;;;;11.49;100.00;101154.31;5272746;28;20032;-76
2023/12/26 06:46:17;;;;;;;13.93;1.98;;;;;;;11.46;100.00;101154.66;5273226;28;20468;-76
2023/12/26 06:48:48;;;;;;;13.88;2.40;;;;;;;11.45;100.00;101165.59;5272504;28;20126;-77
2023/12/26 06:51:19;;;;;;;13.93;2.90;;;;;;;11.46;100.00;101168.09;5275071;27;20016;-77
2023/12/26 06:53:49;;;;;;;19.25;2.78;;;;;;;11.39;100.00;101167.06;5271960;28;20599;-76
2023/12/26 06:56:20;;;;;;;9.25;2.03;;;;;;;11.45;100.00;101179.84;5273146;28;20032;-76
2023/12/26 06:58:52;;;;;;;14.40;2.35;;;;;;;11.35;100.00;101173.78;5267622;28;20027;-77
2023/12/26 07:01:23;;;;;;;11.80;2.30;;;;;;;11.43;100.00;101164.91;5276008;27;20493;-76
2023/12/26 07:03:53;;;;;;;10.60;2.90;;;;;;;11.38;100.00;101170.75;5276708;28;20116;-76
2023/12/26 07:06:23;;;;;;;21.70;6.35;;;;;;;11.39;100.00;101175.94;5276681;28;20084;-77
2023/12/26 07:08:54;;;;;;;14.10;3.13;;;;;;;11.34;100.00;101182.81;5273031;28;20024;-76
2023/12/26 07:11:25;;;;;;;34.90;12.00;;;;;;;11.43;100.00;101192.59;5271747;28;20108;-77
2023/12/26 07:13:55;;;;;;;16.15;4.43;;;;;;;11.40;100.00;101190.25;5276994;28;20070;-77
2023/12/26 07:16:26;;;;;;;19.25;4.22;;;;;;;11.30;100.00;101201.13;5275498;28;20056;-76
2023/12/26 07:18:56;;;;;;;22.45;6.10;;;;;;;11.21;100.00;101198.56;5280075;28;20031;-76
2023/12/26 07:21:27;;;;;;;20.67;7.00;;;;;;;11.15;100.00;101197.38;5271755;28;20149;-76
2023/12/26 07:23:58;;;;;;;14.85;3.03;;;;;;;11.15;100.00;101218.88;5259383;28;20032;-77
2023/12/26 07:26:30;;;;;;;12.70;4.35;;;;;;;11.17;100.00;101224.06;5272448;28;20031;-76
2023/12/26 07:29:03;;;;;;;13.65;2.15;;;;;;;11.13;100.00;101240.47;5276370;28;20024;-77
2023/12/26 07:31:34;;;;;;;13.43;3.38;;;;;;;11.04;100.00;101246.81;5272240;28;20026;-77
2023/12/26 07:34:08;;;;;;;13.05;3.58;;;;;;;11.01;100.00;101260.56;5278109;28;20481;-76
2023/12/26 07:36:39;;;;;;;63.88;31.13;;;;;;;11.02;100.00;101267.63;5274967;28;20028;-76
2023/12/26 07:39:09;;;;;;;22.95;10.35;;;;;;;10.93;100.00;101278.47;5272751;28;20020;-77
2023/12/26 07:41:40;;;;;;;14.00;3.50;;;;;;;10.82;100.00;101283.09;5271287;28;20084;-76
2023/12/26 07:44:10;;;;;;;12.52;4.93;;;;;;;10.87;100.00;101286.16;5277511;28;20519;-76
2023/12/26 07:46:41;;;;;;;8.70;5.00;;;;;;;10.81;100.00;101283.25;5270229;28;20016;-76
2023/12/26 07:49:11;;;;;;;17.92;3.33;;;;;;;10.81;100.00;101297.50;5273111;28;20028;-77
2023/12/26 07:51:42;;;;;;;14.43;1.80;;;;;;;10.72;100.00;101301.13;5270426;28;20393;-76
2023/12/26 07:54:13;;;;;;;8.73;1.85;;;;;;;10.73;100.00;101304.66;5272989;28;20077;-77
2023/12/26 07:56:44;;;;;;;15.32;1.70;;;;;;;10.63;100.00;101316.31;5268568;28;20035;-76
2023/12/26 07:59:15;;;;;;;12.00;3.05;;;;;;;10.75;100.00;101322.31;5269735;28;20084;-77
2023/12/26 08:01:46;;;;;;;10.32;2.90;;;;;;;10.73;100.00;101326.97;5265246;28;20041;-76
2023/12/26 08:04:16;;;;;;;12.85;2.67;;;;;;;10.70;100.00;101340.72;5273796;28;20020;-76
2023/12/26 08:06:47;;;;;;;19.15;5.88;;;;;;;10.73;100.00;101339.53;5269213;28;20451;-76
2023/12/26 08:09:17;;;;;;;14.05;4.63;;;;;;;10.69;100.00;101357.78;5277247;27;20790;-76
2023/12/26 08:11:48;;;;;;;11.70;2.30;;;;;;;10.73;100.00;101356.47;5269706;28;20035;-76
2023/12/26 08:14:18;;;;;;;15.65;2.95;;;;;;;10.62;100.00;101364.78;5278327;27;20481;-76
2023/12/26 08:16:49;;;;;;;11.07;2.17;;;;;;;10.63;100.00;101366.47;5271803;28;20032;-76
2023/12/26 08:19:20;;;;;;;14.68;3.95;;;;;;;10.58;100.00;101372.28;5275846;28;20029;-76
2023/12/26 08:21:50;;;;;;;12.02;6.03;;;;;;;10.58;100.00;101387.53;5278069;28;20723;-76
2023/12/26 08:24:21;;;;;;;19.13;6.43;;;;;;;10.61;100.00;101389.94;5293466;28;20038;-77
2023/12/26 08:26:53;;;;;;;15.18;4.82;;;;;;;10.52;100.00;101386.31;5283444;28;20038;-77
2023/12/26 08:29:24;;;;;;;15.75;3.35;;;;;;;10.59;100.00;101403.50;5271118;28;20027;-77
2023/12/26 08:31:54;;;;;;;13.85;6.07;;;;;;;10.62;100.00;101407.72;5272882;28;20024;-77
2023/12/26 08:34:25;;;;;;;12.18;2.95;;;;;;;10.52;100.00;101399.72;5270818;28;20405;-76
2023/12/26 08:36:56;;;;;;;7.30;2.40;;;;;;;10.49;100.00;101416.16;5275182;28;20028;-76
2023/12/26 08:39:26;;;;;;;16.08;6.10;;;;;;;10.48;100.00;101417.13;5270328;28;20039;-76
2023/12/26 08:41:57;;;;;;;36.05;14.48;;;;;;;10.51;100.00;101416.81;5279504;27;20488;-77
2023/12/26 08:44:27;;;;;;;19.98;4.55;;;;;;;10.53;100.00;101414.81;5267566;28;20028;-76
2023/12/26 08:47:03;;;;;;;19.17;5.50;;;;;;;10.48;100.00;101424.31;5273174;28;20059;-76
2023/12/26 08:49:33;;;;;;;;;;;;;;;10.49;100.00;101417.97;5275418;27;20032;-76
2023/12/26 08:52:04;;;;;;;55.15;25.00;;;;;;;10.40;100.00;101427.78;5273541;28;19915;-76
2023/12/26 08:54:35;;;;;;;46.40;26.02;;;;;;;10.44;100.00;101434.53;5269669;28;20451;-76
2023/12/26 08:57:05;;;;;;;110.78;52.88;;;;;;;10.46;100.00;101437.91;5264493;28;20032;-76
2023/12/26 08:59:36;;;;;;;43.63;26.02;;;;;;;10.54;100.00;101435.31;5271904;28;20092;-76
2023/12/26 09:02:07;;;;;;;31.33;8.05;;;;;;;10.57;100.00;101445.72;5281116;28;20102;-76
2023/12/26 09:04:37;;;;;;;12.10;4.82;;;;;;;10.51;100.00;101440.97;5273841;28;20027;-76
2023/12/26 09:07:08;;;;;;;16.67;4.35;;;;;;;10.45;100.00;101451.47;5273197;28;20407;-76
2023/12/26 09:09:39;;;;;;;9.63;2.67;;;;;;;10.41;100.00;101448.25;5266652;28;20036;-76
2023/12/26 09:12:09;;;;;;;7.63;2.17;;;;;;;10.34;100.00;101447.13;5270735;28;20281;-76
2023/12/26 09:14:40;;;;;;;12.40;2.55;;;;;;;10.31;100.00;101464.38;5267749;28;20016;-76
2023/12/26 09:17:11;;;;;;;16.60;2.67;;;;;;;10.36;100.00;101467.47;5275695;28;20384;-75
2023/12/26 09:19:42;;;;;;;93.60;33.20;;;;;;;10.44;100.00;101469.41;5265773;28;20020;-76
2023/12/26 09:22:12;;;;;;;138.98;47.75;;;;;;;10.72;100.00;101475.56;5271952;28;20546;-75
2023/12/26 09:24:43;;;;;;;65.65;26.23;;;;;;;10.91;100.00;101473.75;5273870;28;20080;-75
2023/12/26 09:27:13;;;;;;;68.25;29.25;;;;;;;11.12;100.00;101485.00;5270914;28;20027;-75
2023/12/26 09:29:44;;;;;;;84.57;40.25;;;;;;;11.34;100.00;101478.31;5279218;28;20472;-74
2023/12/26 09:32:14;;;;;;;101.68;42.50;;;;;;;11.45;100.00;101467.34;5274125;28;20047;-75
2023/12/26 09:34:45;;;;;;;43.55;15.07;;;;;;;11.35;100.00;101480.84;5268148;28;20036;-75
2023/12/26 09:37:16;;;;;;;72.28;34.10;;;;;;;11.37;100.00;101478.84;5279669;28;20467;-75
2023/12/26 09:39:47;;;;;;;45.08;20.73;;;;;;;11.32;100.00;101489.22;5266457;28;20032;-75
2023/12/26 09:42:22;;;;;;;28.15;14.43;;;;;;;11.35;100.00;101498.81;5271969;28;20034;-74
2023/12/26 09:44:53;;;;;;;38.03;26.25;;;;;;;11.42;100.00;101499.88;5263014;28;20565;-74
2023/12/26 09:47:25;;;;;;;26.63;9.60;;;;;;;11.67;100.00;101501.75;5272664;28;20070;-74
2023/12/26 09:49:57;;;;;;;13.32;4.22;;;;;;;11.83;100.00;101510.94;5266194;28;20032;-74
2023/12/26 09:52:31;;;;;;;18.15;3.35;;;;;;;11.99;100.00;101513.72;5272180;28;20046;-73
2023/12/26 09:55:03;;;;;;;15.85;3.05;;;;;;;12.12;100.00;101521.38;5274913;28;20031;-75
2023/12/26 09:57:34;;;;;;;12.48;2.20;;;;;;;12.10;100.00;101513.47;5265439;28;20428;-75
2023/12/26 10:00:05;;;;;;;10.20;2.60;;;;;;;11.98;100.00;101512.03;5273399;28;20024;-74
2023/12/26 10:02:35;;;;;;;14.57;2.45;;;;;;;11.82;100.00;101512.78;5274655;28;20024;-75
2023/12/26 10:05:06;;;;;;;15.07;2.50;;;;;;;11.59;100.00;101523.16;5276245;28;20038;-75
2023/12/26 10:07:37;;;;;;;8.68;2.00;;;;;;;11.36;100.00;101528.22;5273872;28;20334;-76
2023/12/26 10:10:11;;;;;;;11.73;2.30;;;;;;;11.24;100.00;101529.41;5274591;28;20360;-75
2023/12/26 10:12:41;;;;;;;15.73;2.42;;;;;;;11.09;100.00;101541.69;5276433;28;20119;-75
2023/12/26 10:15:12;;;;;;;17.45;2.78;;;;;;;10.99;100.00;101552.50;5275335;28;20389;-75
2023/12/26 10:17:43;;;;;;;22.90;3.67;;;;;;;10.85;100.00;101551.22;5275182;28;20024;-75
2023/12/26 10:20:15;;;;;;;15.60;2.63;;;;;;;10.79;100.00;101557.19;5277175;28;20027;-75
2023/12/26 10:22:46;;;;;;;17.80;4.68;;;;;;;10.74;100.00;101569.34;5272966;28;20044;-75
2023/12/26 10:25:17;;;;;;;14.43;2.50;;;;;;;10.79;100.00;101567.03;5282334;28;20031;-75
2023/12/26 10:27:54;;;;;;;21.85;3.33;;;;;;;10.73;100.00;101575.69;5275388;28;20361;-75
2023/12/26 10:30:25;;;;;;;19.35;3.63;;;;;;;10.69;100.00;101566.25;5273918;28;20500;-75
2023/12/26 10:33:03;;;;;;;14.88;2.55;;;;;;;10.58;100.00;101557.41;5273404;28;20027;-75
2023/12/26 10:35:33;;;;;;;28.67;12.95;;;;;;;10.63;100.00;101571.22;5278589;28;20093;-75
2023/12/26 10:38:04;;;;;;;152.77;55.22;;;;;;;10.65;100.00;101572.94;5279181;28;20473;-75
2023/12/26 10:40:34;;;;;;;56.40;19.92;;;;;;;10.70;100.00;101573.34;5274406;28;20499;-75
2023/12/26 10:43:05;;;;;;;60.47;20.02;;;;;;;10.81;100.00;101579.34;5275702;28;20035;-75
2023/12/26 10:45:35;;;;;;;78.45;29.63;;;;;;;10.88;100.00;101587.63;5273376;28;20659;-75
2023/12/26 10:48:08;;;;;;;118.05;42.90;;;;;;;10.92;100.00;101589.03;5277634;28;20066;-75
2023/12/26 10:50:39;;;;;;;432.48;159.25;;;;;;;11.02;100.00;101587.13;5274693;28;20073;-76
2023/12/26 10:53:16;;;;;;;78.43;26.02;;;;;;;11.15;100.00;101597.50;5277705;28;20038;-76
2023/12/26 10:55:48;;;;;;;26.58;9.63;;;;;;;11.26;100.00;101591.06;5278263;28;20020;-76
2023/12/26 10:58:21;;;;;;;37.00;17.40;;;;;;;11.30;100.00;101585.25;5272835;28;20028;-76
2023/12/26 11:00:52;;;;;;;14.40;3.70;;;;;;;11.20;100.00;101580.94;5273770;28;20020;-76
2023/12/26 11:03:23;;;;;;;26.27;4.00;;;;;;;11.17;100.00;101590.13;5275131;28;20028;-76
2023/12/26 11:05:53;;;;;;;21.17;2.47;;;;;;;11.19;100.00;101593.50;5269803;28;20115;-76
2023/12/26 11:08:24;;;;;;;15.98;3.38;;;;;;;11.35;100.00;101598.22;5272058;28;20024;-76
2023/12/26 11:10:55;;;;;;;21.98;2.80;;;;;;;11.49;100.00;101599.50;5269447;28;20024;-76
2023/12/26 11:13:25;;;;;;;20.20;3.17;;;;;;;11.72;100.00;101607.94;5274451;28;20023;-75
2023/12/26 11:15:56;;;;;;;13.55;2.53;;;;;;;11.79;100.00;101604.47;5278676;28;20427;-75
2023/12/26 11:18:27;;;;;;;8.30;2.40;;;;;;;11.89;100.00;101610.63;5273912;28;20082;-75
2023/12/26 11:20:58;;;;;;;13.43;2.80;;;;;;;11.91;100.00;101602.41;5273700;28;20448;-75
2023/12/26 11:23:30;;;;;;;16.05;2.95;;;;;;;12.04;100.00;101602.00;5274003;28;20059;-75
2023/12/26 11:26:01;;;;;;;12.07;1.75;;;;;;;12.06;100.00;101595.47;5275885;28;20024;-75
2023/12/26 11:28:31;;;;;;;11.55;2.05;;;;;;;12.04;100.00;101596.63;5263416;28;20027;-75